Time;durP1;ratioP1;P1;durP2;ratioP2;P2;SDS_P1;SDS_P2;PMS_P1;PMS_P2;Temp;Humidity;BMP_temperature;BMP_pressure;BME280_temperature;BME280_humidity;BME280_pressure;Samples;Min_cycle;Max_cycle;Signal;HPM_P1;HPM_P2
2021/03/19 00:01:53;;;;;;;;;;;;;;;7.05;89.18;101154.63;5048932;28;19987;-75
2021/03/19 00:07:25;;;;;;;;;;;;;;;7.06;88.44;101145.25;5085616;28;20312;-75
2021/03/19 00:10:09;;;;;;;;;;;;;;;;;;;;;
2021/03/19 00:12:40;;;;;;;;;;;;;;;7.03;89.78;101135.56;5082268;28;19922;-75
2021/03/19 00:15:20;;;;;;;;;;;;;;;7.02;88.70;101124.75;5075603;28;19937;-74
2021/03/19 00:17:48;;;;;;;;;;;;;;;7.00;90.17;101111.22;5057984;28;19966;-75
2021/03/19 00:23:47;;;;;;;;;;;;;;;7.04;89.31;101103.25;5114645;27;19926;-75
2021/03/19 00:26:17;;;;;;;;;;;;;;;7.05;89.69;101104.91;5085683;27;19931;-74
2021/03/19 00:29:03;;;;;;;;;;;;;;;7.05;89.80;101104.91;5083824;28;19916;-75
2021/03/19 00:31:32;;;;;;;;;;;;;;;7.04;89.88;101089.44;5064044;28;19923;-74
2021/03/19 00:34:49;;;;;;;;;;;;;;;7.02;89.20;101091.63;5084825;28;19915;-74
2021/03/19 00:38:06;;;;;;;;;;;;;;;7.02;89.05;101081.44;5077054;28;19920;-74
2021/03/19 00:40:43;;;;;;;;;;;;;;;7.05;89.18;101080.91;5111902;28;19915;-75
2021/03/19 00:43:25;;;;;;;;;;;;;;;7.06;89.50;101078.97;5078655;28;19923;-75
2021/03/19 00:45:56;;;;;;;;;;;;;;;7.05;89.45;101072.63;5061664;28;19921;-74
2021/03/19 00:49:06;;;;;;;;;;;;;;;7.03;88.78;101062.94;5075331;28;19927;-75
2021/03/19 00:51:45;;;;;;;;;;;;;;;7.05;88.73;101060.72;5044931;28;19922;-75
2021/03/19 00:54:36;;;;;;;;;;;;;;;7.05;89.35;101056.06;5076843;28;19975;-75
2021/03/19 00:57:40;;;;;;;;;;;;;;;;;;;;;
2021/03/19 01:00:17;;;;;;;;;;;;;;;7.04;88.66;101048.84;5091097;28;20553;-75
2021/03/19 01:02:58;;;;;;;;;;;;;;;7.04;89.51;101042.50;5062413;28;19921;-75
2021/03/19 01:05:44;;;;;;;;;;;;;;;7.04;89.35;101046.06;5051708;28;19942;-75
2021/03/19 01:08:26;;;;;;;;;;;;;;;7.04;89.50;101036.97;5059033;28;20387;-75
2021/03/19 01:21:19;;;;;;;;;;;;;;;7.02;89.10;101022.56;4987472;28;20317;-75
2021/03/19 01:24:32;;;;;;;;;;;;;;;7.03;88.75;101008.50;4997601;28;19925;-75
2021/03/19 01:31:05;;;;;;;;;;;;;;;7.05;88.94;101006.34;5086950;28;19916;-75
2021/03/19 01:33:42;;;;;;;;;;;;;;;7.03;88.82;100997.47;5058066;28;20002;-75
2021/03/19 01:36:45;;;;;;;;;;;;;;;7.02;88.73;101006.84;5046609;28;19916;-75
2021/03/19 01:39:17;;;;;;;;;;;;;;;7.01;88.71;100994.13;5053653;28;19924;-75
2021/03/19 01:42:06;;;;;;;;;;;;;;;7.01;90.06;100994.13;5046106;28;19912;-74
2021/03/19 01:45:05;;;;;;;;;;;;;;;7.01;89.23;100982.25;5058795;28;20373;-75
2021/03/19 01:48:14;;;;;;;;;;;;;;;6.99;89.67;100978.91;5018608;28;19923;-74
2021/03/19 01:51:01;;;;;;;;;;;;;;;6.96;90.36;100980.25;5070107;28;20411;-74
2021/03/19 01:53:48;;;;;;;;;;;;;;;6.99;90.34;100974.22;5075042;28;19916;-74
2021/03/19 01:56:35;;;;;;;;;;;;;;;6.99;91.55;100968.69;5065308;28;19916;-75
2021/03/19 01:59:27;;;;;;;;;;;;;;;6.98;92.48;100960.69;5076173;28;20026;-74
2021/03/19 02:02:13;;;;;;;;;;;;;;;6.97;92.92;100964.53;5093771;28;20272;-75
2021/03/19 02:04:58;;;;;;;;;;;;;;;6.97;93.29;100959.03;5077789;28;19970;-75
2021/03/19 02:07:44;;;;;;;;;;;;;;;6.98;92.39;100944.09;5094044;28;19916;-75
2021/03/19 02:10:32;;;;;;;;;;;;;;;6.99;93.58;100948.53;5072451;28;19931;-74
2021/03/19 02:13:24;;;;;;;;;;;;;;;7.01;93.53;100944.41;5093361;28;19916;-74
2021/03/19 02:16:16;;;;;;;;;;;;;;;7.00;94.00;100931.72;5077018;28;19983;-74
2021/03/19 02:19:05;;;;;;;;;;;;;;;7.02;94.50;100934.19;5076153;28;19927;-74
2021/03/19 02:21:52;;;;;;;;;;;;;;;7.05;96.35;100937.28;5077364;28;19916;-74
2021/03/19 02:24:44;;;;;;;;;;;;;;;7.09;95.15;100926.56;5066550;28;19970;-74
2021/03/19 02:27:34;;;;;;;;;;;;;;;7.11;95.75;100921.59;5077359;28;19920;-74
2021/03/19 02:30:24;;;;;;;;;;;;;;;7.11;95.65;100938.19;5077000;28;19923;-75
2021/03/19 02:32:52;;;;;;;;;;;;;;;7.15;95.72;100919.97;5075973;28;20555;-75
2021/03/19 02:35:24;;;;;;;;;;;;;;;7.16;95.59;100919.72;5074955;28;19916;-74
2021/03/19 02:38:03;;;;;;;;;;;;;;;7.19;95.26;100925.81;5078381;28;19924;-74
2021/03/19 02:40:51;;;;;;;;;;;;;;;7.21;96.76;100924.44;5048379;28;20270;-74
2021/03/19 02:43:17;;;;;;;;;;;;;;;7.21;97.08;100912.56;5049507;28;19928;-74
2021/03/19 02:45:57;;;;;;;;;;;;;;;7.24;97.02;100904.59;5065277;28;20300;-74
2021/03/19 02:48:32;;;;;;;;;;;;;;;7.26;97.08;100902.41;5077460;28;20114;-74
2021/03/19 02:51:05;;;;;;;;;;;;;;;7.27;97.26;100898.56;5097122;28;19922;-74
2021/03/19 02:53:37;;;;;;;;;;;;;;;7.32;97.43;100886.69;5080033;28;19927;-74
2021/03/19 02:56:11;;;;;;;;;;;;;;;7.35;97.76;100884.28;5076708;28;19916;-74
2021/03/19 02:58:52;;;;;;;;;;;;;;;7.35;97.84;100877.88;5081065;28;19912;-75
2021/03/19 03:01:22;;;;;;;;;;;;;;;7.42;98.55;100885.97;5094326;28;20352;-75
2021/03/19 03:04:24;;;;;;;;;;;;;;;7.41;98.16;100887.91;5072928;28;19923;-75
2021/03/19 03:07:23;;;;;;;;;;;;;;;;;;;;;
2021/03/19 03:10:08;;;;;;;;;;;;;;;7.39;97.30;100893.69;5111385;28;19924;-74
2021/03/19 03:12:56;;;;;;;;;;;;;;;7.43;98.38;100885.69;5075324;28;19937;-74
2021/03/19 03:18:56;;;;;;;;;;;;;;;7.47;98.68;100884.06;5083811;28;19916;-75
2021/03/19 03:21:25;;;;;;;;;;;;;;;7.52;98.61;100878.59;5097523;28;19922;-75
2021/03/19 03:23:58;;;;;;;;;;;;;;;7.47;98.78;100877.72;5077103;28;19919;-74
2021/03/19 03:26:43;;;;;;;;;;;;;;;7.54;98.65;100876.38;5067632;28;19919;-74
2021/03/19 03:29:20;;;;;;;;;;;;;;;7.54;98.62;100872.78;5085347;28;19952;-74
2021/03/19 03:31:46;;;;;;;;;;;;;;;7.50;98.58;100868.91;5064116;28;19926;-74
2021/03/19 03:34:16;;;;;;;;;;;;;;;7.54;98.73;100870.03;5081769;28;20284;-74
2021/03/19 03:36:54;;;;;;;;;;;;;;;7.51;98.99;100865.84;5073790;28;19921;-74
2021/03/19 03:39:38;;;;;;;;;;;;;;;7.54;98.83;100865.31;5084238;28;19916;-75
2021/03/19 03:42:11;;;;;;;;;;;;;;;7.56;98.58;100865.06;5113943;28;19922;-74
2021/03/19 03:44:36;;;;;;;;;;;;;;;7.55;98.67;100855.09;5090748;28;19927;-74
2021/03/19 03:47:05;;;;;;;;;;;;;;;7.56;98.64;100848.50;5074986;28;19916;-74
2021/03/19 03:49:42;;;;;;;;;;;;;;;7.56;98.86;100852.06;5043965;28;19919;-74
2021/03/19 03:52:08;;;;;;;;;;;;;;;7.55;98.81;100844.91;5076326;28;20280;-75
2021/03/19 03:54:38;;;;;;;;;;;;;;;7.60;98.83;100852.38;5077111;28;19920;-74
2021/03/19 03:57:11;;;;;;;;;;;;;;;7.57;98.87;100850.13;5070959;28;19923;-75
2021/03/19 03:59:46;;;;;;;;;;;;;;;7.59;99.00;100856.25;5073359;28;19919;-74
2021/03/19 04:02:27;;;;;;;;;;;;;;;7.57;98.86;100855.66;5062092;28;19920;-74
2021/03/19 04:05:02;;;;;;;;;;;;;;;7.59;98.74;100856.25;5062913;28;20292;-74
2021/03/19 04:07:28;;;;;;;;;;;;;;;7.57;98.81;100852.91;5044408;28;19952;-74
2021/03/19 04:09:59;;;;;;;;;;;;;;;7.61;99.20;100848.53;5062160;28;19959;-74
2021/03/19 04:12:25;;;;;;;;;;;;;;;7.58;99.14;100854.59;5044341;28;19916;-74
2021/03/19 04:14:53;;;;;;;;;;;;;;;7.56;99.27;100856.78;5072820;28;19957;-74
2021/03/19 04:17:44;;;;;;;;;;;;;;;7.56;99.29;100856.78;5064132;28;19920;-75
2021/03/19 04:20:13;;;;;;;;;;;;;;;7.53;99.27;100852.63;5052552;28;19975;-74
2021/03/19 04:22:43;;;;;;;;;;;;;;;7.56;99.52;100849.31;5059926;28;19920;-74
2021/03/19 04:25:14;;;;;;;;;;;;;;;7.56;99.46;100852.06;5033983;28;19912;-75
2021/03/19 04:27:51;;;;;;;;;;;;;;;7.56;99.56;100854.84;5057519;28;19920;-74
2021/03/19 04:30:34;;;;;;;;;;;;;;;7.53;99.70;100846.25;5067930;28;19923;-74
2021/03/19 04:33:26;;;;;;;;;;;;;;;7.52;100.00;100850.09;5074304;28;19916;-74
2021/03/19 04:36:14;;;;;;;;;;;;;;;7.51;100.00;100840.16;5078041;28;19968;-74
2021/03/19 04:38:48;;;;;;;;;;;;;;;7.51;100.00;100837.38;5071582;28;19923;-74
2021/03/19 04:41:16;;;;;;;;;;;;;;;7.52;100.00;100847.34;5046675;28;20292;-74
2021/03/19 04:43:42;;;;;;;;;;;;;;;7.52;100.00;100850.09;5081345;28;20386;-74
2021/03/19 04:46:13;;;;;;;;;;;;;;;7.50;100.00;100855.09;5075041;28;19955;-74
2021/03/19 04:48:41;;;;;;;;;;;;;;;7.50;100.00;100857.84;5065695;28;20003;-74
2021/03/19 04:51:10;;;;;;;;;;;;;;;7.50;100.00;100852.31;5082517;27;20337;-74
2021/03/19 04:53:37;;;;;;;;;;;;;;;7.48;100.00;100865.56;5110389;27;19916;-74
2021/03/19 04:56:07;;;;;;;;;;;;;;;7.53;100.00;100868.38;5064717;28;19916;-74
2021/03/19 04:58:33;;;;;;;;;;;;;;;7.51;100.00;100874.16;5081826;28;19915;-74
2021/03/19 05:01:01;;;;;;;;;;;;;;;7.50;100.00;100874.44;5081301;28;19915;-74
2021/03/19 05:03:26;;;;;;;;;;;;;;;7.50;99.95;100877.19;5071235;28;19926;-74
2021/03/19 05:05:55;;;;;;;;;;;;;;;7.45;99.97;100882.69;5092193;28;19912;-74
2021/03/19 05:08:23;;;;;;;;;;;;;;;7.46;99.75;100889.84;5080450;28;20324;-74
2021/03/19 05:10:51;;;;;;;;;;;;;;;7.45;99.34;100882.69;5078417;28;19926;-74
2021/03/19 05:13:22;;;;;;;;;;;;;;;7.38;99.35;100883.75;5105754;28;19967;-74
2021/03/19 05:15:49;;;;;;;;;;;;;;;7.39;99.42;100890.09;5066378;28;20003;-74
2021/03/19 05:18:14;;;;;;;;;;;;;;;7.35;99.39;100898.09;5068206;28;19915;-74
2021/03/19 05:20:42;;;;;;;;;;;;;;;7.35;98.79;100900.84;5078020;28;19951;-74
2021/03/19 05:23:17;;;;;;;;;;;;;;;7.31;98.73;100894.16;5114933;27;20002;-74
2021/03/19 05:25:47;;;;;;;;;;;;;;;7.29;98.60;100896.34;5103201;27;19964;-74
2021/03/19 05:28:12;;;;;;;;;;;;;;;7.28;98.14;100902.16;5103932;28;19958;-74
2021/03/19 05:30:38;;;;;;;;;;;;;;;7.25;97.93;100906.28;5080632;28;19919;-74
2021/03/19 05:33:04;;;;;;;;;;;;;;;7.23;97.95;100908.44;5094403;28;19969;-75
2021/03/19 05:35:29;;;;;;;;;;;;;;;7.19;97.88;100912.84;5082155;27;20476;-74
2021/03/19 05:38:02;;;;;;;;;;;;;;;7.11;97.89;100916.09;5069999;28;19912;-74
2021/03/19 05:40:37;;;;;;;;;;;;;;;7.10;97.60;100918.03;5080696;28;20010;-74
2021/03/19 05:43:23;;;;;;;;;;;;;;;7.06;97.34;100924.31;5098726;28;19920;-74
2021/03/19 05:45:53;;;;;;;;;;;;;;;7.04;97.01;100913.50;5086929;27;19926;-74
2021/03/19 05:48:21;;;;;;;;;;;;;;;7.01;96.81;100916.81;5063905;28;19961;-74
2021/03/19 05:50:57;;;;;;;;;;;;;;;6.97;97.10;100932.22;5077874;28;20591;-74
2021/03/19 05:53:40;;;;;;;;;;;;;;;7.00;96.33;100937.22;5084068;28;20441;-74
2021/03/19 05:56:22;;;;;;;;;;;;;;;6.94;96.46;100939.09;5085164;28;20384;-74
2021/03/19 05:58:48;;;;;;;;;;;;;;;6.90;96.03;100949.00;5064507;27;19916;-75
2021/03/19 06:01:21;;;;;;;;;;;;;;;6.84;95.88;100950.03;5096643;27;19920;-75
2021/03/19 06:03:52;;;;;;;;;;;;;;;6.85;95.62;100951.72;5080170;28;19999;-75
2021/03/19 06:06:21;;;;;;;;;;;;;;;6.78;95.28;100951.06;5085151;27;19915;-74
2021/03/19 06:08:50;;;;;;;;;;;;;;;6.77;95.13;100948.56;5082631;28;19975;-75
2021/03/19 06:11:23;;;;;;;;;;;;;;;6.72;94.88;100954.88;5096734;27;19931;-74
2021/03/19 06:14:00;;;;;;;;;;;;;;;6.71;95.50;100955.94;5080623;28;19960;-74
2021/03/19 06:16:48;;;;;;;;;;;;;;;6.72;95.49;100958.44;5114155;28;19927;-75
2021/03/19 06:19:30;;;;;;;;;;;;;;;6.71;94.81;100961.47;5070904;28;20414;-74
2021/03/19 06:22:14;;;;;;;;;;;;;;;6.63;95.24;100973.81;5128910;27;20398;-75
2021/03/19 06:24:42;;;;;;;;;;;;;;;6.67;93.78;100968.59;5103814;27;20342;-75
2021/03/19 06:27:19;;;;;;;;;;;;;;;6.59;94.37;100969.88;5080507;28;19916;-75
2021/03/19 06:30:04;;;;;;;;;;;;;;;6.56;93.53;100970.38;5111040;28;19916;-75
2021/03/19 06:32:30;;;;;;;;;;;;;;;6.53;93.58;100981.13;5094144;28;20007;-75
2021/03/19 06:35:31;;;;;;;;;;;;;;;;;;;;;
2021/03/19 06:38:36;;;;;;;;;;;;;;;6.51;92.76;100986.03;5101700;27;20356;-74
2021/03/19 06:45:05;;;;;;;;;;;;;;;6.45;93.60;100988.72;5017344;28;19920;-74
2021/03/19 06:58:39;;;;;;;;;;;;;;;6.41;93.85;100995.88;5006351;28;19918;-78
2021/03/19 07:01:34;;;;;;;;;;;;;;;6.43;94.00;101001.94;5014050;28;19983;-78
2021/03/19 07:07:25;;;;;;;;;;;;;;;6.39;94.35;101006.31;5062784;28;19999;-77
2021/03/19 07:10:19;;;;;;;;;;;;;;;6.37;94.37;100999.38;5066626;28;19923;-76
2021/03/19 07:13:30;;;;;;;;;;;;;;;6.37;94.65;101002.13;5004206;28;19922;-77
2021/03/19 07:17:02;;;;;;;;;;;;;;;6.28;95.05;101015.53;4944235;28;19951;-75
2021/03/19 07:23:12;;;;;;;;;;;;;;;;;;;;;
2021/03/19 07:33:18;;;;;;;;;;;;;;;6.35;95.24;101041.03;4902568;29;19929;-76
2021/03/19 07:35:44;;;;;;;;;;;;;;;6.39;95.19;101041.34;4902219;29;20010;-72
2021/03/19 07:38:27;;;;;;;;;;;;;;;6.35;95.46;101046.53;4957634;28;19957;-73
2021/03/19 07:41:11;;;;;;;;;;;;;;;6.35;95.76;101045.69;4979200;28;20009;-72
2021/03/19 07:43:40;;;;;;;;;;;;;;;6.35;95.66;101046.53;4961679;28;20318;-73
2021/03/19 07:46:24;;;;;;;;;;;;;;;6.39;95.78;101053.22;5018493;28;19984;-72
2021/03/19 07:49:11;;;;;;;;;;;;;;;6.37;95.42;101066.41;5041775;28;19924;-73
2021/03/19 07:51:52;;;;;;;;;;;;;;;6.40;95.50;101068.66;5019632;28;19984;-73
2021/03/19 07:54:23;;;;;;;;;;;;;;;6.41;95.13;101075.03;5005258;28;19917;-73
2021/03/19 07:56:49;;;;;;;;;;;;;;;6.44;95.18;101075.38;5040664;28;19917;-73
2021/03/19 07:59:17;;;;;;;;;;;;;;;6.51;95.16;101085.38;5052731;28;20503;-72
2021/03/19 08:01:42;;;;;;;;;;;;;;;6.49;95.43;101086.47;5055026;28;19932;-73
2021/03/19 08:04:23;;;;;;;;;;;;;;;6.51;95.53;101093.66;5059312;28;19940;-73
2021/03/19 08:06:50;;;;;;;;;;;;;;;6.59;95.51;101101.53;5054539;28;20942;-73
2021/03/19 08:09:34;;;;;;;;;;;;;;;6.62;94.94;101104.59;5054427;28;19916;-73
2021/03/19 08:12:01;;;;;;;;;;;;;;;6.69;93.80;101098.91;5092455;27;19955;-73
2021/03/19 08:14:45;;;;;;;;;;;;;;;6.78;92.28;101102.06;5100599;28;19912;-73
2021/03/19 08:17:10;;;;;;;;;;;;;;;6.92;90.84;101103.38;5095425;28;19970;-73
2021/03/19 08:19:42;;;;;;;;;;;;;;;7.05;88.92;101111.28;5096913;28;20455;-75
2021/03/19 08:22:26;;;;;;;;;;;;;;;7.14;87.66;101112.50;5091528;27;19916;-75
2021/03/19 08:25:13;;;;;;;;;;;;;;;7.26;85.11;101106.84;5084872;28;20410;-75
2021/03/19 08:27:48;;;;;;;;;;;;;;;7.27;84.68;101110.44;5082864;28;19962;-76
2021/03/19 08:30:19;;;;;;;;;;;;;;;7.24;83.18;101120.06;5065832;27;19923;-75
2021/03/19 08:32:54;;;;;;;;;;;;;;;7.35;82.85;101119.13;5061444;28;19916;-76
2021/03/19 08:35:29;;;;;;;;;;;;;;;7.41;82.45;101125.56;5076297;27;19927;-75
2021/03/19 08:38:12;;;;;;;;;;;;;;;7.45;81.38;101120.34;5116130;27;19955;-75
2021/03/19 08:47:25;;;;;;;;;;;;;;;7.60;78.69;101148.16;5082719;28;20007;-75
2021/03/19 08:49:59;;;;;;;;;;;;;;;7.65;78.94;101128.84;5072710;28;19916;-75
2021/03/19 08:52:44;;;;;;;;;;;;;;;7.67;78.65;101131.38;5062292;28;19940;-75
2021/03/19 08:55:56;;;;;;;;;;;;;;;7.78;79.22;101136.75;5043806;28;19923;-75
2021/03/19 08:58:47;;;;;;;;;;;;;;;7.75;78.89;101151.09;5030635;28;19917;-76
2021/03/19 09:01:33;;;;;;;;;;;;;;;7.78;78.01;101146.97;4997255;28;19921;-76
2021/03/19 09:04:59;;;;;;;;;;;;;;;7.89;76.17;101142.41;4987200;28;19918;-75
2021/03/19 09:08:03;;;;;;;;;;;;;;;8.01;76.74;101140.31;4997609;28;19925;-75
2021/03/19 09:10:48;;;;;;;;;;;;;;;;;;;;;
2021/03/19 09:14:24;;;;;;;;;;;;;;;8.13;73.74;101143.72;4938541;28;20306;-75
2021/03/19 09:17:50;;;;;;;;;;;;;;;;;;;;;
2021/03/19 09:27:33;;;;;;;;;;;;;;;8.09;70.62;101172.19;4944860;28;19927;-76
2021/03/19 09:30:48;;;;;;;;;;;;;;;8.09;70.91;101172.19;4979414;28;19952;-75
2021/03/19 09:33:44;;;;;;;;;;;;;;;8.11;72.88;101179.13;5020121;28;19919;-76
2021/03/19 09:36:47;;;;;;;;;;;;;;;8.10;73.73;101176.63;5073830;28;20402;-75
2021/03/19 09:39:53;;;;;;;;;;;;;;;;;;;;;
2021/03/19 09:50:35;;;;;;;;;;;;;;;8.52;70.91;101184.22;4991338;28;19977;-75
2021/03/19 09:53:39;;;;;;;;;;;;;;;8.51;71.04;101164.03;4915393;29;20436;-75
2021/03/19 09:56:51;;;;;;;;;;;;;;;8.48;72.45;101175.63;4906396;29;19923;-75
2021/03/19 09:59:44;;;;;;;;;;;;;;;8.25;71.58;101163.78;4895862;29;20285;-75
2021/03/19 10:02:25;;;;;;;;;;;;;;;8.26;72.20;101165.44;4899248;29;19978;-72
2021/03/19 10:04:50;;;;;;;;;;;;;;;8.18;72.11;101174.22;4916963;29;19919;-72
2021/03/19 10:07:17;;;;;;;;;;;;;;;8.21;72.76;101170.09;4918430;29;20419;-72
2021/03/19 10:09:43;;;;;;;;;;;;;;;8.19;72.46;101164.84;4900117;29;19919;-71
2021/03/19 10:12:28;;;;;;;;;;;;;;;8.14;72.61;101172.25;4916055;29;19978;-72
2021/03/19 10:14:54;;;;;;;;;;;;;;;8.04;72.12;101175.72;4915679;29;20361;-72
2021/03/19 10:17:27;;;;;;;;;;;;;;;8.06;72.46;101177.16;4898780;29;20104;-71
2021/03/19 10:19:59;;;;;;;;;;;;;;;7.99;73.01;101170.16;4925464;29;20002;-72
2021/03/19 10:22:29;;;;;;;;;;;;;;;8.00;73.81;101178.19;4937797;28;19949;-72
2021/03/19 10:24:54;;;;;;;;;;;;;;;8.16;75.09;101170.91;4993417;28;19918;-71
2021/03/19 10:27:20;;;;;;;;;;;;;;;8.29;76.56;101180.69;4984658;28;19924;-75
2021/03/19 10:30:09;;;;;;;;;;;;;;;8.46;74.90;101180.59;5067770;28;20273;-75
2021/03/19 10:43:40;;;;;;;;;;;;;;;;;;;;;
2021/03/19 10:57:36;;;;;;;;;;;;;;;;;;;;;
2021/03/19 11:00:43;;;;;;;;;;;;;;;9.08;66.62;101204.91;5029591;28;20397;-75
2021/03/19 11:04:06;;;;;;;;;;;;;;;;;;;;;
2021/03/19 11:07:23;;;;;;;;;;;;;;;;;;;;;
2021/03/19 11:10:49;;;;;;;;;;;;;;;9.11;65.03;101215.44;5049528;28;20431;-76
2021/03/19 11:20:05;;;;;;;;;;;;;;;8.99;67.07;101223.09;5030044;28;19917;-76
2021/03/19 11:23:22;;;;;;;;;;;;;;;9.04;68.29;101225.09;4986930;28;19921;-75
2021/03/19 11:29:52;;;;;;;;;;;;;;;9.12;69.75;101221.81;4941306;29;19925;-76
2021/03/19 11:33:12;;;;;;;;;;;;;;;;;;;;;
2021/03/19 11:39:39;;;;;;;;;;;;;;;;;;;;;
2021/03/19 14:04:27;;;;;;;;;;;;;;;;;;;;;
2021/03/19 16:57:35;;;;;;;;;;;;;;;;;;;;;
2021/03/19 17:00:42;;;;;;;;;;;;;;;8.03;66.66;101363.03;4893997;29;19997;-75
2021/03/19 17:03:10;;;;;;;;;;;;;;;7.96;66.77;101358.75;4947279;28;19922;-74
2021/03/19 18:01:29;;;;;;;;;;;;;;;6.61;70.69;101463.69;6181701;22;19924;31
2021/03/19 18:19:31;;;;;;;;;;;;;;;;;;;;;
2021/03/19 18:22:32;;;;;;;;;;;;;;;;;;;;;
2021/03/19 18:25:26;;;;;;;;;;;;;;;6.13;71.96;101485.00;4971627;28;20418;-75
2021/03/19 18:28:47;;;;;;;;;;;;;;;6.08;72.11;101484.88;4904429;28;19923;-75
2021/03/19 18:43:36;;;;;;;;;;;;;;;5.85;72.66;101520.66;4716197;29;20431;-78
2021/03/19 18:50:23;;;;;;;;;;;;;;;;;;;;;
2021/03/19 19:14:39;;;;;;;;;;;;;;;5.29;75.15;101575.13;4879352;29;20006;-77
2021/03/19 19:17:57;;;;;;;;;;;;;;;5.19;75.59;101585.91;4881385;29;19927;-78
2021/03/19 19:20:49;;;;;;;;;;;;;;;5.14;75.98;101581.91;4930954;28;19918;-78
2021/03/19 19:23:44;;;;;;;;;;;;;;;5.11;76.03;101592.56;4904924;28;19935;-75
2021/03/19 19:59:29;;;;;;;;;;;;;;;4.61;78.86;101621.06;5934156;22;19927;-73
2021/03/19 20:01:54;;;;;;;;;;;;;;;4.57;79.26;101628.09;4962634;28;19922;-76
2021/03/19 20:04:19;;;;;;;;;;;;;;;4.52;79.73;101624.34;4979535;28;19960;-75
